Historique des mesures à Cassis (13260), France
Quotidien Résumé Octobre 13, 2017 Unités:  Métrique    US   Métrique/US
« Précédent (Jour)
Suivant (Jour) »
Quotidien Hebdomadaire Mensuel Annuel Période au choix
  Maximum: Minimum: Moyenne:
Température: TemperatureC °C 15.6 °C 17.8 °C
Point de rosée: DewpointC °C 12.9 °C 14.6 °C
Humidité: Humidity % 75 % 78 %
Vitesse du vent: 0 km/h 0 km/h 1.8 km/h
Rafales: 0 km/h - -
Vent:- - South
Pression: PressurehPa hPa 1022.2 hPa -
Précipitations: 0.0 mm    
Historical Graphs
 
 
Mesures pour : Octobre 13, 2017
Heure Temperature Point de rosée Pression Vent Vitesse du vent Rafales Humidité Pluie (par heure) Conditions
TemperatureC °C DewpointC °C PressurehPa hPa Calm     Humidity % HourlyPrecipMM mm SoftwareType W/m2
00:11 17.2 °C 13.7 °C 1022.6 hPa Calm     80 % 0.0 mm open2300-1.11 W/m2
01:11 16.9 °C 13.8 °C 1022.6 hPa Calm     82 % 0.0 mm open2300-1.11 W/m2
02:11 16.6 °C 13.7 °C 1022.6 hPa Calm   2.3 km/h 83 % 0.0 mm open2300-1.11 W/m2
03:11 15.9 °C 13.2 °C 1022.2 hPa North 2.9 km/h 2.9 km/h 84 % 0.0 mm open2300-1.11 W/m2
04:11 15.6 °C 12.9 °C 1022.6 hPa Calm     84 % 0.0 mm open2300-1.11 W/m2
06:11 15.7 °C 13.0 °C 1022.2 hPa Calm     84 % 0.0 mm open2300-1.11 W/m2
07:11 16.3 °C 13.8 °C 1022.2 hPa Calm     85 % 0.0 mm open2300-1.11 W/m2
08:11 16.4 °C 13.9 °C 1022.6 hPa Calm     85 % 0.0 mm open2300-1.11 W/m2
09:11 16.8 °C 14.3 °C 1023.2 hPa Calm     85 % 0.0 mm open2300-1.11 W/m2
10:11 17.6 °C 14.9 °C 1023.6 hPa South 3.4 km/h 5.6 km/h 84 % 0.0 mm open2300-1.11 W/m2
11:11 18.8 °C 15.8 °C 1023.9 hPa South 6.4 km/h 6.4 km/h 83 % 0.0 mm open2300-1.11 W/m2
12:11 20.2 °C 16.5 °C 1023.9 hPa West 5.6 km/h 6.4 km/h 79 % 0.0 mm open2300-1.11 W/m2
13:11 21.2 °C 16.9 °C 1023.6 hPa ESE 5.1 km/h 10.3 km/h 77 % 0.0 mm open2300-1.11 W/m2
14:11 21.2 °C 16.6 °C 1023.2 hPa Calm   5.1 km/h 75 % 0.0 mm open2300-1.11 W/m2
15:11 21.4 °C 16.8 °C 1022.9 hPa SSW 8.9 km/h 9.8 km/h 75 % 0.0 mm open2300-1.11 W/m2
16:11 21.3 °C 16.8 °C 1022.2 hPa South 5.6 km/h 6.4 km/h 76 % 0.0 mm open2300-1.11 W/m2
17:11 20.9 °C 16.7 °C 1022.2 hPa WNW 5.1 km/h 5.1 km/h 77 % 0.0 mm open2300-1.11 W/m2
18:11 20.4 °C 16.7 °C 1022.6 hPa Calm     79 % 0.0 mm open2300-1.11 W/m2
19:11 19.9 °C 16.6 °C 1022.6 hPa Calm     81 % 0.0 mm open2300-1.11 W/m2
20:11 19.6 °C 16.4 °C 1022.9 hPa Calm     82 % 0.0 mm open2300-1.11 W/m2
21:11 19.5 °C 16.6 °C 1023.2 hPa Calm     83 % 0.0 mm open2300-1.11 W/m2
22:11 18.9 °C 16.1 °C 1023.2 hPa Calm     84 % 0.0 mm open2300-1.11 W/m2
23:11 18.1 °C 15.3 °C 1023.2 hPa Calm     84 % 0.0 mm open2300-1.11 W/m2
Observations météo à CASSIS
WU-History script by Weather Underground - 1 mb